sensor_id;sensor_type;location;lat;lon;timestamp;temperature;humidity
34985;DHT22;21190;58.750;17.004;2023-12-20T00:00:37;1.30;99.90
34985;DHT22;21190;58.750;17.004;2023-12-20T00:03:07;1.20;99.90
34985;DHT22;21190;58.750;17.004;2023-12-20T00:05:34;1.20;99.90
34985;DHT22;21190;58.750;17.004;2023-12-20T00:08:02;1.40;99.90
34985;DHT22;21190;58.750;17.004;2023-12-20T00:10:32;1.40;99.90
34985;DHT22;21190;58.750;17.004;2023-12-20T00:12:59;1.30;99.90
34985;DHT22;21190;58.750;17.004;2023-12-20T00:15:26;1.30;99.90
34985;DHT22;21190;58.750;17.004;2023-12-20T00:17:53;1.30;99.90
34985;DHT22;21190;58.750;17.004;2023-12-20T00:20:21;1.20;99.90
34985;DHT22;21190;58.750;17.004;2023-12-20T00:22:48;1.20;99.90
34985;DHT22;21190;58.750;17.004;2023-12-20T00:25:15;1.30;99.90
34985;DHT22;21190;58.750;17.004;2023-12-20T00:27:42;1.40;99.90
34985;DHT22;21190;58.750;17.004;2023-12-20T00:30:11;1.40;99.90
34985;DHT22;21190;58.750;17.004;2023-12-20T00:32:38;1.30;99.90
34985;DHT22;21190;58.750;17.004;2023-12-20T00:35:06;1.30;99.90
34985;DHT22;21190;58.750;17.004;2023-12-20T00:37:33;1.20;99.90
34985;DHT22;21190;58.750;17.004;2023-12-20T00:40:00;1.10;99.90
34985;DHT22;21190;58.750;17.004;2023-12-20T00:42:27;1.10;99.90
34985;DHT22;21190;58.750;17.004;2023-12-20T00:44:54;1.10;99.90
34985;DHT22;21190;58.750;17.004;2023-12-20T00:47:22;1.00;99.90
34985;DHT22;21190;58.750;17.004;2023-12-20T00:49:49;1.00;99.90
34985;DHT22;21190;58.750;17.004;2023-12-20T00:52:16;1.00;99.90
34985;DHT22;21190;58.750;17.004;2023-12-20T00:54:44;1.00;99.90
34985;DHT22;21190;58.750;17.004;2023-12-20T00:57:11;0.90;99.90
34985;DHT22;21190;58.750;17.004;2023-12-20T00:59:38;0.70;99.90
34985;DHT22;21190;58.750;17.004;2023-12-20T01:02:06;0.70;99.90
34985;DHT22;21190;58.750;17.004;2023-12-20T01:04:33;0.70;99.90
34985;DHT22;21190;58.750;17.004;2023-12-20T01:07:00;0.70;99.90
34985;DHT22;21190;58.750;17.004;2023-12-20T01:09:27;0.60;99.90
34985;DHT22;21190;58.750;17.004;2023-12-20T01:11:54;0.60;99.90
34985;DHT22;21190;58.750;17.004;2023-12-20T01:14:21;0.60;99.90
34985;DHT22;21190;58.750;17.004;2023-12-20T01:16:49;0.60;99.90
34985;DHT22;21190;58.750;17.004;2023-12-20T01:19:16;0.70;99.90
34985;DHT22;21190;58.750;17.004;2023-12-20T01:21:43;0.70;99.90
34985;DHT22;21190;58.750;17.004;2023-12-20T01:24:11;0.70;99.90
34985;DHT22;21190;58.750;17.004;2023-12-20T01:26:38;0.70;99.90
34985;DHT22;21190;58.750;17.004;2023-12-20T01:29:05;0.70;99.90
34985;DHT22;21190;58.750;17.004;2023-12-20T01:31:32;0.60;99.90
34985;DHT22;21190;58.750;17.004;2023-12-20T01:33:59;0.60;99.90
34985;DHT22;21190;58.750;17.004;2023-12-20T01:36:27;0.60;99.90
34985;DHT22;21190;58.750;17.004;2023-12-20T01:38:54;0.60;99.90
34985;DHT22;21190;58.750;17.004;2023-12-20T01:41:21;0.60;99.90
34985;DHT22;21190;58.750;17.004;2023-12-20T01:43:48;0.50;99.90
34985;DHT22;21190;58.750;17.004;2023-12-20T01:46:19;0.50;99.90
34985;DHT22;21190;58.750;17.004;2023-12-20T01:48:48;0.50;99.90
34985;DHT22;21190;58.750;17.004;2023-12-20T01:51:16;0.50;99.90
34985;DHT22;21190;58.750;17.004;2023-12-20T01:53:43;0.50;99.90
34985;DHT22;21190;58.750;17.004;2023-12-20T01:56:11;0.50;99.90
34985;DHT22;21190;58.750;17.004;2023-12-20T01:58:45;0.50;99.90
34985;DHT22;21190;58.750;17.004;2023-12-20T02:01:13;0.50;99.90
34985;DHT22;21190;58.750;17.004;2023-12-20T02:03:41;0.50;99.90
34985;DHT22;21190;58.750;17.004;2023-12-20T02:06:09;0.50;99.90
34985;DHT22;21190;58.750;17.004;2023-12-20T02:08:36;0.50;99.90
34985;DHT22;21190;58.750;17.004;2023-12-20T02:11:04;0.50;99.90
34985;DHT22;21190;58.750;17.004;2023-12-20T02:13:31;0.50;99.90
34985;DHT22;21190;58.750;17.004;2023-12-20T02:15:59;0.60;99.90
34985;DHT22;21190;58.750;17.004;2023-12-20T02:18:26;0.70;99.90
34985;DHT22;21190;58.750;17.004;2023-12-20T02:20:53;0.70;99.90
34985;DHT22;21190;58.750;17.004;2023-12-20T02:23:20;0.70;99.90
34985;DHT22;21190;58.750;17.004;2023-12-20T02:25:47;0.70;99.90
34985;DHT22;21190;58.750;17.004;2023-12-20T02:28:15;0.60;99.90
34985;DHT22;21190;58.750;17.004;2023-12-20T02:30:42;0.60;99.90
34985;DHT22;21190;58.750;17.004;2023-12-20T02:33:12;0.50;99.90
34985;DHT22;21190;58.750;17.004;2023-12-20T02:35:41;0.50;99.90
34985;DHT22;21190;58.750;17.004;2023-12-20T02:38:08;0.60;99.90
34985;DHT22;21190;58.750;17.004;2023-12-20T02:40:35;0.60;99.90
34985;DHT22;21190;58.750;17.004;2023-12-20T02:43:02;0.60;99.90
34985;DHT22;21190;58.750;17.004;2023-12-20T02:45:29;0.60;99.90
34985;DHT22;21190;58.750;17.004;2023-12-20T02:47:57;0.60;99.90
34985;DHT22;21190;58.750;17.004;2023-12-20T02:50:24;0.60;99.90
34985;DHT22;21190;58.750;17.004;2023-12-20T02:52:51;0.60;99.90
34985;DHT22;21190;58.750;17.004;2023-12-20T02:55:18;0.60;99.90
34985;DHT22;21190;58.750;17.004;2023-12-20T02:57:45;0.60;99.90
34985;DHT22;21190;58.750;17.004;2023-12-20T03:00:13;0.60;99.90
34985;DHT22;21190;58.750;17.004;2023-12-20T03:02:40;0.60;99.90
34985;DHT22;21190;58.750;17.004;2023-12-20T03:05:08;0.60;99.90
34985;DHT22;21190;58.750;17.004;2023-12-20T03:07:36;0.60;99.90
34985;DHT22;21190;58.750;17.004;2023-12-20T03:10:04;0.60;99.90
34985;DHT22;21190;58.750;17.004;2023-12-20T03:12:46;0.60;99.90
34985;DHT22;21190;58.750;17.004;2023-12-20T03:15:13;0.50;99.90
34985;DHT22;21190;58.750;17.004;2023-12-20T03:17:40;0.50;99.90
34985;DHT22;21190;58.750;17.004;2023-12-20T03:20:08;0.50;99.90
34985;DHT22;21190;58.750;17.004;2023-12-20T03:22:35;0.50;99.90
34985;DHT22;21190;58.750;17.004;2023-12-20T03:25:03;0.50;99.90
34985;DHT22;21190;58.750;17.004;2023-12-20T03:27:30;0.50;99.90
34985;DHT22;21190;58.750;17.004;2023-12-20T03:29:57;0.60;99.90
34985;DHT22;21190;58.750;17.004;2023-12-20T03:32:24;0.60;99.90
34985;DHT22;21190;58.750;17.004;2023-12-20T03:34:51;0.60;99.90
34985;DHT22;21190;58.750;17.004;2023-12-20T03:37:19;0.60;99.90
34985;DHT22;21190;58.750;17.004;2023-12-20T03:39:46;0.60;99.90
34985;DHT22;21190;58.750;17.004;2023-12-20T03:42:13;0.60;99.90
34985;DHT22;21190;58.750;17.004;2023-12-20T03:44:40;0.60;99.90
34985;DHT22;21190;58.750;17.004;2023-12-20T03:47:07;0.70;99.90
34985;DHT22;21190;58.750;17.004;2023-12-20T03:49:34;0.70;99.90
34985;DHT22;21190;58.750;17.004;2023-12-20T03:52:04;0.70;99.90
34985;DHT22;21190;58.750;17.004;2023-12-20T03:54:32;0.80;99.90
34985;DHT22;21190;58.750;17.004;2023-12-20T03:56:59;0.80;99.90
34985;DHT22;21190;58.750;17.004;2023-12-20T03:59:26;0.80;99.90
34985;DHT22;21190;58.750;17.004;2023-12-20T04:01:54;0.90;99.90
34985;DHT22;21190;58.750;17.004;2023-12-20T04:04:21;0.90;99.90
34985;DHT22;21190;58.750;17.004;2023-12-20T04:06:48;0.90;99.90
34985;DHT22;21190;58.750;17.004;2023-12-20T04:09:17;0.90;99.90
34985;DHT22;21190;58.750;17.004;2023-12-20T04:11:44;0.90;99.90
34985;DHT22;21190;58.750;17.004;2023-12-20T04:14:11;1.00;99.90
34985;DHT22;21190;58.750;17.004;2023-12-20T04:16:38;0.90;99.90
34985;DHT22;21190;58.750;17.004;2023-12-20T04:19:06;0.90;99.90
34985;DHT22;21190;58.750;17.004;2023-12-20T04:21:33;0.90;99.90
34985;DHT22;21190;58.750;17.004;2023-12-20T04:24:00;0.90;99.90
34985;DHT22;21190;58.750;17.004;2023-12-20T04:26:27;1.00;99.90
34985;DHT22;21190;58.750;17.004;2023-12-20T04:28:54;0.90;99.90
34985;DHT22;21190;58.750;17.004;2023-12-20T04:31:21;1.00;99.90
34985;DHT22;21190;58.750;17.004;2023-12-20T04:33:49;1.00;99.90
34985;DHT22;21190;58.750;17.004;2023-12-20T04:36:16;1.00;99.90
34985;DHT22;21190;58.750;17.004;2023-12-20T04:38:43;1.10;99.90
34985;DHT22;21190;58.750;17.004;2023-12-20T04:41:10;1.10;99.90
34985;DHT22;21190;58.750;17.004;2023-12-20T04:43:37;1.10;99.90
34985;DHT22;21190;58.750;17.004;2023-12-20T04:46:04;1.20;99.90
34985;DHT22;21190;58.750;17.004;2023-12-20T04:48:32;1.20;99.90
34985;DHT22;21190;58.750;17.004;2023-12-20T04:50:59;1.20;99.90
34985;DHT22;21190;58.750;17.004;2023-12-20T04:53:26;1.30;99.90
34985;DHT22;21190;58.750;17.004;2023-12-20T04:55:54;1.30;99.90
34985;DHT22;21190;58.750;17.004;2023-12-20T04:58:21;1.30;99.90
34985;DHT22;21190;58.750;17.004;2023-12-20T05:00:48;1.40;99.90
34985;DHT22;21190;58.750;17.004;2023-12-20T05:03:16;1.40;99.90
34985;DHT22;21190;58.750;17.004;2023-12-20T05:05:43;1.40;99.90
34985;DHT22;21190;58.750;17.004;2023-12-20T05:08:10;1.40;99.90
34985;DHT22;21190;58.750;17.004;2023-12-20T05:10:37;1.50;99.90
34985;DHT22;21190;58.750;17.004;2023-12-20T05:13:04;1.50;99.90
34985;DHT22;21190;58.750;17.004;2023-12-20T05:15:31;1.60;99.90
34985;DHT22;21190;58.750;17.004;2023-12-20T05:17:58;1.60;99.90
34985;DHT22;21190;58.750;17.004;2023-12-20T05:20:26;1.60;99.90
34985;DHT22;21190;58.750;17.004;2023-12-20T05:22:53;1.60;99.90
34985;DHT22;21190;58.750;17.004;2023-12-20T05:25:20;1.70;99.90
34985;DHT22;21190;58.750;17.004;2023-12-20T05:27:48;1.70;99.90
34985;DHT22;21190;58.750;17.004;2023-12-20T05:30:15;1.70;99.90
34985;DHT22;21190;58.750;17.004;2023-12-20T05:32:42;1.60;99.90
34985;DHT22;21190;58.750;17.004;2023-12-20T05:35:10;1.60;99.90
34985;DHT22;21190;58.750;17.004;2023-12-20T05:37:37;1.60;99.90
34985;DHT22;21190;58.750;17.004;2023-12-20T05:40:05;1.60;99.90
34985;DHT22;21190;58.750;17.004;2023-12-20T05:42:32;1.60;99.90
34985;DHT22;21190;58.750;17.004;2023-12-20T05:45:00;1.60;99.90
34985;DHT22;21190;58.750;17.004;2023-12-20T05:47:27;1.60;99.90
34985;DHT22;21190;58.750;17.004;2023-12-20T05:49:54;1.60;99.90
34985;DHT22;21190;58.750;17.004;2023-12-20T05:52:21;1.60;99.90
34985;DHT22;21190;58.750;17.004;2023-12-20T05:54:49;1.60;99.90
34985;DHT22;21190;58.750;17.004;2023-12-20T05:57:16;1.60;99.90
34985;DHT22;21190;58.750;17.004;2023-12-20T05:59:43;1.70;99.90
34985;DHT22;21190;58.750;17.004;2023-12-20T06:02:10;1.70;99.90
34985;DHT22;21190;58.750;17.004;2023-12-20T06:04:42;1.70;99.90
34985;DHT22;21190;58.750;17.004;2023-12-20T06:07:12;1.70;99.90
34985;DHT22;21190;58.750;17.004;2023-12-20T06:09:39;1.80;99.90
34985;DHT22;21190;58.750;17.004;2023-12-20T06:12:07;1.70;99.90
34985;DHT22;21190;58.750;17.004;2023-12-20T06:14:35;1.60;99.90
34985;DHT22;21190;58.750;17.004;2023-12-20T06:17:02;1.60;99.90
34985;DHT22;21190;58.750;17.004;2023-12-20T06:19:29;1.60;99.90
34985;DHT22;21190;58.750;17.004;2023-12-20T06:21:57;1.60;99.90
34985;DHT22;21190;58.750;17.004;2023-12-20T06:24:24;1.60;99.90
34985;DHT22;21190;58.750;17.004;2023-12-20T06:26:54;1.60;99.90
34985;DHT22;21190;58.750;17.004;2023-12-20T06:29:22;1.60;99.90
34985;DHT22;21190;58.750;17.004;2023-12-20T06:31:49;1.60;99.90
34985;DHT22;21190;58.750;17.004;2023-12-20T06:34:17;1.60;99.90
34985;DHT22;21190;58.750;17.004;2023-12-20T06:36:44;1.70;99.90
34985;DHT22;21190;58.750;17.004;2023-12-20T06:39:11;1.70;99.90
34985;DHT22;21190;58.750;17.004;2023-12-20T06:41:39;1.70;99.90
34985;DHT22;21190;58.750;17.004;2023-12-20T06:44:06;1.70;99.90
34985;DHT22;21190;58.750;17.004;2023-12-20T06:46:34;1.70;99.90
34985;DHT22;21190;58.750;17.004;2023-12-20T06:49:01;1.70;99.90
34985;DHT22;21190;58.750;17.004;2023-12-20T06:51:28;1.80;99.90
34985;DHT22;21190;58.750;17.004;2023-12-20T06:53:55;1.90;99.90
34985;DHT22;21190;58.750;17.004;2023-12-20T06:56:22;1.90;99.90
34985;DHT22;21190;58.750;17.004;2023-12-20T06:58:49;2.00;99.90
34985;DHT22;21190;58.750;17.004;2023-12-20T07:01:16;2.00;99.90
34985;DHT22;21190;58.750;17.004;2023-12-20T07:03:44;2.00;99.90
34985;DHT22;21190;58.750;17.004;2023-12-20T07:06:12;2.00;99.90
34985;DHT22;21190;58.750;17.004;2023-12-20T07:08:40;1.90;99.90
34985;DHT22;21190;58.750;17.004;2023-12-20T07:11:07;2.00;99.90
34985;DHT22;21190;58.750;17.004;2023-12-20T07:13:34;2.00;99.90
34985;DHT22;21190;58.750;17.004;2023-12-20T07:16:01;2.00;99.90
34985;DHT22;21190;58.750;17.004;2023-12-20T07:18:28;2.10;99.90
34985;DHT22;21190;58.750;17.004;2023-12-20T07:20:56;2.10;99.90
34985;DHT22;21190;58.750;17.004;2023-12-20T07:23:23;2.10;99.90
34985;DHT22;21190;58.750;17.004;2023-12-20T07:25:50;2.10;99.90
34985;DHT22;21190;58.750;17.004;2023-12-20T07:28:17;2.20;99.90
34985;DHT22;21190;58.750;17.004;2023-12-20T07:30:45;2.20;99.90
34985;DHT22;21190;58.750;17.004;2023-12-20T07:33:12;2.20;99.90
34985;DHT22;21190;58.750;17.004;2023-12-20T07:35:39;2.30;99.90
34985;DHT22;21190;58.750;17.004;2023-12-20T07:38:06;2.30;99.90
34985;DHT22;21190;58.750;17.004;2023-12-20T07:40:33;2.30;99.90
34985;DHT22;21190;58.750;17.004;2023-12-20T07:43:01;2.30;99.90
34985;DHT22;21190;58.750;17.004;2023-12-20T07:45:28;2.40;99.90
34985;DHT22;21190;58.750;17.004;2023-12-20T07:47:55;2.40;99.90
34985;DHT22;21190;58.750;17.004;2023-12-20T07:50:22;2.40;99.90
34985;DHT22;21190;58.750;17.004;2023-12-20T07:52:49;2.50;99.90
34985;DHT22;21190;58.750;17.004;2023-12-20T07:55:16;2.50;99.90
34985;DHT22;21190;58.750;17.004;2023-12-20T07:57:43;2.50;99.90
34985;DHT22;21190;58.750;17.004;2023-12-20T08:00:11;2.50;99.90
34985;DHT22;21190;58.750;17.004;2023-12-20T08:02:38;2.60;99.90
34985;DHT22;21190;58.750;17.004;2023-12-20T08:05:06;2.60;99.90
34985;DHT22;21190;58.750;17.004;2023-12-20T08:07:33;2.60;99.90
34985;DHT22;21190;58.750;17.004;2023-12-20T08:10:00;2.70;99.90
34985;DHT22;21190;58.750;17.004;2023-12-20T08:12:27;2.70;99.90
34985;DHT22;21190;58.750;17.004;2023-12-20T08:14:55;2.70;99.90
34985;DHT22;21190;58.750;17.004;2023-12-20T08:17:22;2.80;99.90
34985;DHT22;21190;58.750;17.004;2023-12-20T08:19:50;2.80;99.90
34985;DHT22;21190;58.750;17.004;2023-12-20T08:22:17;2.90;99.90
34985;DHT22;21190;58.750;17.004;2023-12-20T08:24:45;2.80;99.90
34985;DHT22;21190;58.750;17.004;2023-12-20T08:27:12;2.80;99.90
34985;DHT22;21190;58.750;17.004;2023-12-20T08:29:39;2.90;99.90
34985;DHT22;21190;58.750;17.004;2023-12-20T08:32:06;2.90;99.90
34985;DHT22;21190;58.750;17.004;2023-12-20T08:34:33;2.90;99.90
34985;DHT22;21190;58.750;17.004;2023-12-20T08:37:00;2.90;99.90
34985;DHT22;21190;58.750;17.004;2023-12-20T08:39:28;2.90;99.90
34985;DHT22;21190;58.750;17.004;2023-12-20T08:41:56;2.90;99.90
34985;DHT22;21190;58.750;17.004;2023-12-20T08:44:23;2.90;99.90
34985;DHT22;21190;58.750;17.004;2023-12-20T08:46:50;2.90;99.90
34985;DHT22;21190;58.750;17.004;2023-12-20T08:49:18;2.90;99.90
34985;DHT22;21190;58.750;17.004;2023-12-20T08:51:45;2.90;99.90
34985;DHT22;21190;58.750;17.004;2023-12-20T08:54:12;2.90;99.90
34985;DHT22;21190;58.750;17.004;2023-12-20T08:56:40;2.80;99.90
34985;DHT22;21190;58.750;17.004;2023-12-20T08:59:07;2.80;99.90
34985;DHT22;21190;58.750;17.004;2023-12-20T09:01:34;2.80;99.90
34985;DHT22;21190;58.750;17.004;2023-12-20T09:04:02;2.90;99.90
34985;DHT22;21190;58.750;17.004;2023-12-20T09:06:29;2.90;99.90
34985;DHT22;21190;58.750;17.004;2023-12-20T09:08:56;2.90;99.90
34985;DHT22;21190;58.750;17.004;2023-12-20T09:11:23;2.90;99.90
34985;DHT22;21190;58.750;17.004;2023-12-20T09:13:51;2.90;99.90
34985;DHT22;21190;58.750;17.004;2023-12-20T09:16:18;3.00;99.90
34985;DHT22;21190;58.750;17.004;2023-12-20T09:18:45;3.00;99.90
34985;DHT22;21190;58.750;17.004;2023-12-20T09:21:12;3.00;99.90
34985;DHT22;21190;58.750;17.004;2023-12-20T09:23:39;3.00;99.90
34985;DHT22;21190;58.750;17.004;2023-12-20T09:26:06;3.00;99.90
34985;DHT22;21190;58.750;17.004;2023-12-20T09:28:34;3.00;99.90
34985;DHT22;21190;58.750;17.004;2023-12-20T09:31:04;3.00;99.90
34985;DHT22;21190;58.750;17.004;2023-12-20T09:33:33;3.00;99.90
34985;DHT22;21190;58.750;17.004;2023-12-20T09:36:00;3.00;99.90
34985;DHT22;21190;58.750;17.004;2023-12-20T09:38:27;3.10;99.90
34985;DHT22;21190;58.750;17.004;2023-12-20T09:40:55;3.10;99.90
34985;DHT22;21190;58.750;17.004;2023-12-20T09:43:24;3.10;99.90
34985;DHT22;21190;58.750;17.004;2023-12-20T09:45:53;3.10;99.90
34985;DHT22;21190;58.750;17.004;2023-12-20T09:48:21;3.10;99.90
34985;DHT22;21190;58.750;17.004;2023-12-20T09:50:48;3.10;99.90
34985;DHT22;21190;58.750;17.004;2023-12-20T09:53:20;3.10;99.90
34985;DHT22;21190;58.750;17.004;2023-12-20T09:55:51;3.10;99.90
34985;DHT22;21190;58.750;17.004;2023-12-20T09:58:19;3.00;99.90
34985;DHT22;21190;58.750;17.004;2023-12-20T10:00:47;3.00;99.90
34985;DHT22;21190;58.750;17.004;2023-12-20T10:03:15;3.00;99.90
34985;DHT22;21190;58.750;17.004;2023-12-20T10:05:43;3.00;99.90
34985;DHT22;21190;58.750;17.004;2023-12-20T10:08:12;3.10;99.90
34985;DHT22;21190;58.750;17.004;2023-12-20T10:10:39;3.10;99.90
34985;DHT22;21190;58.750;17.004;2023-12-20T10:13:15;3.00;99.90
34985;DHT22;21190;58.750;17.004;2023-12-20T10:15:43;3.10;99.90
34985;DHT22;21190;58.750;17.004;2023-12-20T10:18:12;3.10;99.90
34985;DHT22;21190;58.750;17.004;2023-12-20T10:20:40;3.10;99.90
34985;DHT22;21190;58.750;17.004;2023-12-20T10:23:09;3.20;99.90
34985;DHT22;21190;58.750;17.004;2023-12-20T10:25:37;3.20;99.90
34985;DHT22;21190;58.750;17.004;2023-12-20T10:28:16;3.10;99.90
34985;DHT22;21190;58.750;17.004;2023-12-20T10:30:50;3.10;99.90
34985;DHT22;21190;58.750;17.004;2023-12-20T10:33:28;3.10;99.90
34985;DHT22;21190;58.750;17.004;2023-12-20T10:35:56;3.10;99.90
34985;DHT22;21190;58.750;17.004;2023-12-20T10:38:23;3.10;99.90
34985;DHT22;21190;58.750;17.004;2023-12-20T10:40:56;3.10;99.90
34985;DHT22;21190;58.750;17.004;2023-12-20T10:43:26;3.10;99.90
34985;DHT22;21190;58.750;17.004;2023-12-20T10:45:53;3.10;99.90
34985;DHT22;21190;58.750;17.004;2023-12-20T10:48:21;3.10;99.90
34985;DHT22;21190;58.750;17.004;2023-12-20T10:50:55;3.10;99.90
34985;DHT22;21190;58.750;17.004;2023-12-20T10:53:24;3.10;99.90
34985;DHT22;21190;58.750;17.004;2023-12-20T10:55:55;3.10;99.90
34985;DHT22;21190;58.750;17.004;2023-12-20T10:58:24;3.00;99.90
34985;DHT22;21190;58.750;17.004;2023-12-20T11:00:59;3.10;99.90
34985;DHT22;21190;58.750;17.004;2023-12-20T11:03:27;3.10;99.90
34985;DHT22;21190;58.750;17.004;2023-12-20T11:06:10;3.10;99.90
34985;DHT22;21190;58.750;17.004;2023-12-20T11:11:32;3.20;99.90
34985;DHT22;21190;58.750;17.004;2023-12-20T11:14:11;3.20;99.90
34985;DHT22;21190;58.750;17.004;2023-12-20T11:16:41;3.20;99.90
34985;DHT22;21190;58.750;17.004;2023-12-20T11:19:20;3.20;99.90
34985;DHT22;21190;58.750;17.004;2023-12-20T11:21:48;3.20;99.90
34985;DHT22;21190;58.750;17.004;2023-12-20T11:24:16;3.30;99.90
34985;DHT22;21190;58.750;17.004;2023-12-20T11:26:47;3.30;99.90
34985;DHT22;21190;58.750;17.004;2023-12-20T11:29:35;3.40;99.90
34985;DHT22;21190;58.750;17.004;2023-12-20T11:34:59;3.50;99.90
34985;DHT22;21190;58.750;17.004;2023-12-20T11:37:31;3.50;99.90
34985;DHT22;21190;58.750;17.004;2023-12-20T11:40:07;3.50;99.90
34985;DHT22;21190;58.750;17.004;2023-12-20T11:42:42;3.60;99.90
34985;DHT22;21190;58.750;17.004;2023-12-20T11:45:19;3.50;99.90
34985;DHT22;21190;58.750;17.004;2023-12-20T11:47:50;3.50;99.90
34985;DHT22;21190;58.750;17.004;2023-12-20T11:50:18;3.50;99.90
34985;DHT22;21190;58.750;17.004;2023-12-20T11:52:46;3.50;99.90
34985;DHT22;21190;58.750;17.004;2023-12-20T11:55:14;3.50;99.90
34985;DHT22;21190;58.750;17.004;2023-12-20T11:57:42;3.50;99.90
34985;DHT22;21190;58.750;17.004;2023-12-20T12:00:10;3.50;99.90
34985;DHT22;21190;58.750;17.004;2023-12-20T12:02:38;3.60;99.90
34985;DHT22;21190;58.750;17.004;2023-12-20T12:05:05;3.60;99.90
34985;DHT22;21190;58.750;17.004;2023-12-20T12:07:34;3.60;99.90
34985;DHT22;21190;58.750;17.004;2023-12-20T12:10:02;3.60;99.90
34985;DHT22;21190;58.750;17.004;2023-12-20T12:12:30;3.60;99.90
34985;DHT22;21190;58.750;17.004;2023-12-20T12:14:59;3.60;99.90
34985;DHT22;21190;58.750;17.004;2023-12-20T12:17:26;3.60;99.90
34985;DHT22;21190;58.750;17.004;2023-12-20T12:20:05;3.60;99.90
34985;DHT22;21190;58.750;17.004;2023-12-20T12:22:34;3.70;99.90
34985;DHT22;21190;58.750;17.004;2023-12-20T12:25:22;3.70;99.90
34985;DHT22;21190;58.750;17.004;2023-12-20T12:27:51;3.60;99.90
34985;DHT22;21190;58.750;17.004;2023-12-20T12:30:18;3.60;99.90
34985;DHT22;21190;58.750;17.004;2023-12-20T12:32:46;3.70;99.90
34985;DHT22;21190;58.750;17.004;2023-12-20T12:35:14;3.70;99.90
34985;DHT22;21190;58.750;17.004;2023-12-20T12:37:41;3.60;99.90
34985;DHT22;21190;58.750;17.004;2023-12-20T12:40:13;3.60;99.90
34985;DHT22;21190;58.750;17.004;2023-12-20T12:42:42;3.60;99.90
34985;DHT22;21190;58.750;17.004;2023-12-20T12:45:11;3.70;99.90
34985;DHT22;21190;58.750;17.004;2023-12-20T12:47:41;3.70;99.90
34985;DHT22;21190;58.750;17.004;2023-12-20T12:50:09;3.70;99.90
34985;DHT22;21190;58.750;17.004;2023-12-20T12:52:36;3.70;99.90
34985;DHT22;21190;58.750;17.004;2023-12-20T12:55:04;3.70;99.90
34985;DHT22;21190;58.750;17.004;2023-12-20T12:57:32;3.70;99.90
34985;DHT22;21190;58.750;17.004;2023-12-20T13:00:00;3.70;99.90
34985;DHT22;21190;58.750;17.004;2023-12-20T13:02:29;3.80;99.90
34985;DHT22;21190;58.750;17.004;2023-12-20T13:04:57;3.80;99.90
34985;DHT22;21190;58.750;17.004;2023-12-20T13:07:25;3.80;99.90
34985;DHT22;21190;58.750;17.004;2023-12-20T13:09:52;3.70;99.90
34985;DHT22;21190;58.750;17.004;2023-12-20T13:12:19;3.70;99.90
34985;DHT22;21190;58.750;17.004;2023-12-20T13:14:46;3.70;99.90
34985;DHT22;21190;58.750;17.004;2023-12-20T13:17:14;3.70;99.90
34985;DHT22;21190;58.750;17.004;2023-12-20T13:19:42;3.70;99.90
34985;DHT22;21190;58.750;17.004;2023-12-20T13:22:09;3.70;99.90
34985;DHT22;21190;58.750;17.004;2023-12-20T13:24:37;3.70;99.90
34985;DHT22;21190;58.750;17.004;2023-12-20T13:27:04;3.70;99.90
34985;DHT22;21190;58.750;17.004;2023-12-20T13:29:32;3.80;99.90
34985;DHT22;21190;58.750;17.004;2023-12-20T13:31:59;3.80;99.90
34985;DHT22;21190;58.750;17.004;2023-12-20T13:34:26;3.70;99.90
34985;DHT22;21190;58.750;17.004;2023-12-20T13:36:53;3.70;99.90
34985;DHT22;21190;58.750;17.004;2023-12-20T13:39:21;3.80;99.90
34985;DHT22;21190;58.750;17.004;2023-12-20T13:41:48;3.80;99.90
34985;DHT22;21190;58.750;17.004;2023-12-20T13:44:15;3.80;99.90
34985;DHT22;21190;58.750;17.004;2023-12-20T13:46:43;3.80;99.90
34985;DHT22;21190;58.750;17.004;2023-12-20T13:49:10;3.80;99.90
34985;DHT22;21190;58.750;17.004;2023-12-20T13:51:37;3.80;99.90
34985;DHT22;21190;58.750;17.004;2023-12-20T13:54:05;3.80;99.90
34985;DHT22;21190;58.750;17.004;2023-12-20T13:56:32;3.80;99.90
34985;DHT22;21190;58.750;17.004;2023-12-20T13:59:12;3.70;99.90
34985;DHT22;21190;58.750;17.004;2023-12-20T14:01:40;3.70;99.90
34985;DHT22;21190;58.750;17.004;2023-12-20T14:04:08;3.70;99.90
34985;DHT22;21190;58.750;17.004;2023-12-20T14:06:35;3.60;99.90
34985;DHT22;21190;58.750;17.004;2023-12-20T14:09:02;3.60;99.90
34985;DHT22;21190;58.750;17.004;2023-12-20T14:11:30;3.60;99.90
34985;DHT22;21190;58.750;17.004;2023-12-20T14:13:57;3.50;99.90
34985;DHT22;21190;58.750;17.004;2023-12-20T14:16:25;3.50;99.90
34985;DHT22;21190;58.750;17.004;2023-12-20T14:18:52;3.40;99.90
34985;DHT22;21190;58.750;17.004;2023-12-20T14:21:22;3.40;99.90
34985;DHT22;21190;58.750;17.004;2023-12-20T14:23:50;3.40;99.90
34985;DHT22;21190;58.750;17.004;2023-12-20T14:26:18;3.30;99.90
34985;DHT22;21190;58.750;17.004;2023-12-20T14:28:45;3.30;99.90
34985;DHT22;21190;58.750;17.004;2023-12-20T14:31:13;3.20;99.90
34985;DHT22;21190;58.750;17.004;2023-12-20T14:33:40;3.20;99.90
34985;DHT22;21190;58.750;17.004;2023-12-20T14:36:09;3.10;99.90
34985;DHT22;21190;58.750;17.004;2023-12-20T14:38:36;3.10;99.90
34985;DHT22;21190;58.750;17.004;2023-12-20T14:41:04;3.00;99.90
34985;DHT22;21190;58.750;17.004;2023-12-20T14:43:33;2.90;99.90
34985;DHT22;21190;58.750;17.004;2023-12-20T14:46:00;2.90;99.90
34985;DHT22;21190;58.750;17.004;2023-12-20T14:48:27;2.80;99.90
34985;DHT22;21190;58.750;17.004;2023-12-20T14:50:55;2.80;99.90
34985;DHT22;21190;58.750;17.004;2023-12-20T14:53:26;2.70;99.90
34985;DHT22;21190;58.750;17.004;2023-12-20T14:55:53;2.70;99.90
34985;DHT22;21190;58.750;17.004;2023-12-20T14:58:20;2.60;99.90
34985;DHT22;21190;58.750;17.004;2023-12-20T15:00:47;2.60;99.90
34985;DHT22;21190;58.750;17.004;2023-12-20T15:03:14;2.70;99.90
34985;DHT22;21190;58.750;17.004;2023-12-20T15:05:43;2.60;99.90
34985;DHT22;21190;58.750;17.004;2023-12-20T15:08:11;2.60;99.90
34985;DHT22;21190;58.750;17.004;2023-12-20T15:10:38;2.60;99.90
34985;DHT22;21190;58.750;17.004;2023-12-20T15:13:05;2.60;99.90
34985;DHT22;21190;58.750;17.004;2023-12-20T15:15:32;2.70;99.90
34985;DHT22;21190;58.750;17.004;2023-12-20T15:18:00;2.70;99.90
34985;DHT22;21190;58.750;17.004;2023-12-20T15:20:28;2.70;99.90
34985;DHT22;21190;58.750;17.004;2023-12-20T15:22:55;2.60;99.90
34985;DHT22;21190;58.750;17.004;2023-12-20T15:25:25;2.60;99.90
34985;DHT22;21190;58.750;17.004;2023-12-20T15:27:52;2.60;99.90
34985;DHT22;21190;58.750;17.004;2023-12-20T15:30:20;2.60;99.90
34985;DHT22;21190;58.750;17.004;2023-12-20T15:32:47;2.60;99.90
34985;DHT22;21190;58.750;17.004;2023-12-20T15:35:15;2.50;99.90
34985;DHT22;21190;58.750;17.004;2023-12-20T15:37:42;2.50;99.90
34985;DHT22;21190;58.750;17.004;2023-12-20T15:40:11;2.50;99.90